sensor_id;sensor_type;location;lat;lon;timestamp;P1;durP1;ratioP1;P2;durP2;ratioP2
30515;SDS011;17297;54.022;10.760;2024-02-23T00:01:05;0.65;;;0.65;;
30515;SDS011;17297;54.022;10.760;2024-02-23T00:03:31;2.45;;;0.80;;
30515;SDS011;17297;54.022;10.760;2024-02-23T00:05:57;1.17;;;0.88;;
30515;SDS011;17297;54.022;10.760;2024-02-23T00:08:23;2.47;;;0.82;;
30515;SDS011;17297;54.022;10.760;2024-02-23T00:10:48;0.82;;;0.70;;
30515;SDS011;17297;54.022;10.760;2024-02-23T00:13:14;1.23;;;0.88;;
30515;SDS011;17297;54.022;10.760;2024-02-23T00:15:39;1.98;;;0.80;;
30515;SDS011;17297;54.022;10.760;2024-02-23T00:18:04;0.88;;;0.75;;
30515;SDS011;17297;54.022;10.760;2024-02-23T00:20:31;1.70;;;0.82;;
30515;SDS011;17297;54.022;10.760;2024-02-23T00:22:56;0.75;;;0.68;;
30515;SDS011;17297;54.022;10.760;2024-02-23T00:25:21;1.10;;;0.82;;
30515;SDS011;17297;54.022;10.760;2024-02-23T00:27:48;1.13;;;0.98;;
30515;SDS011;17297;54.022;10.760;2024-02-23T00:30:13;1.17;;;0.90;;
30515;SDS011;17297;54.022;10.760;2024-02-23T00:32:39;1.00;;;0.70;;
30515;SDS011;17297;54.022;10.760;2024-02-23T00:35:04;1.02;;;0.60;;
30515;SDS011;17297;54.022;10.760;2024-02-23T00:37:30;0.77;;;0.52;;
30515;SDS011;17297;54.022;10.760;2024-02-23T00:40:00;0.50;;;0.50;;
30515;SDS011;17297;54.022;10.760;2024-02-23T00:42:29;3.25;;;0.73;;
30515;SDS011;17297;54.022;10.760;2024-02-23T00:44:54;0.70;;;0.70;;
30515;SDS011;17297;54.022;10.760;2024-02-23T00:47:19;5.38;;;0.80;;
30515;SDS011;17297;54.022;10.760;2024-02-23T00:49:45;0.90;;;0.75;;
30515;SDS011;17297;54.022;10.760;2024-02-23T00:52:10;0.52;;;0.52;;
30515;SDS011;17297;54.022;10.760;2024-02-23T00:54:35;0.77;;;0.70;;
30515;SDS011;17297;54.022;10.760;2024-02-23T00:57:01;0.57;;;0.57;;
30515;SDS011;17297;54.022;10.760;2024-02-23T00:59:26;0.52;;;0.52;;
30515;SDS011;17297;54.022;10.760;2024-02-23T01:01:51;0.60;;;0.60;;
30515;SDS011;17297;54.022;10.760;2024-02-23T01:04:17;2.83;;;0.70;;
30515;SDS011;17297;54.022;10.760;2024-02-23T01:06:42;0.85;;;0.68;;
30515;SDS011;17297;54.022;10.760;2024-02-23T01:09:07;1.17;;;0.80;;
30515;SDS011;17297;54.022;10.760;2024-02-23T01:11:32;0.80;;;0.73;;
30515;SDS011;17297;54.022;10.760;2024-02-23T01:13:58;1.40;;;0.80;;
30515;SDS011;17297;54.022;10.760;2024-02-23T01:16:23;1.50;;;0.70;;
30515;SDS011;17297;54.022;10.760;2024-02-23T01:18:48;4.25;;;0.80;;
30515;SDS011;17297;54.022;10.760;2024-02-23T01:21:14;0.60;;;0.60;;
30515;SDS011;17297;54.022;10.760;2024-02-23T01:23:39;1.10;;;1.02;;
30515;SDS011;17297;54.022;10.760;2024-02-23T01:26:04;0.60;;;0.60;;
30515;SDS011;17297;54.022;10.760;2024-02-23T01:28:30;0.77;;;0.73;;
30515;SDS011;17297;54.022;10.760;2024-02-23T01:30:55;0.70;;;0.50;;
30515;SDS011;17297;54.022;10.760;2024-02-23T01:33:21;1.13;;;0.70;;
30515;SDS011;17297;54.022;10.760;2024-02-23T01:35:46;0.50;;;0.50;;
30515;SDS011;17297;54.022;10.760;2024-02-23T01:38:12;0.43;;;0.43;;
30515;SDS011;17297;54.022;10.760;2024-02-23T01:40:43;0.50;;;0.50;;
30515;SDS011;17297;54.022;10.760;2024-02-23T01:43:09;0.82;;;0.60;;
30515;SDS011;17297;54.022;10.760;2024-02-23T01:45:34;0.50;;;0.50;;
30515;SDS011;17297;54.022;10.760;2024-02-23T01:48:00;0.40;;;0.40;;
30515;SDS011;17297;54.022;10.760;2024-02-23T01:50:26;0.40;;;0.40;;
30515;SDS011;17297;54.022;10.760;2024-02-23T01:52:52;2.05;;;0.60;;
30515;SDS011;17297;54.022;10.760;2024-02-23T01:55:19;0.43;;;0.43;;
30515;SDS011;17297;54.022;10.760;2024-02-23T01:57:45;0.30;;;0.30;;
30515;SDS011;17297;54.022;10.760;2024-02-23T02:00:12;0.32;;;0.32;;
30515;SDS011;17297;54.022;10.760;2024-02-23T02:02:44;0.30;;;0.30;;
30515;SDS011;17297;54.022;10.760;2024-02-23T02:05:10;0.38;;;0.32;;
30515;SDS011;17297;54.022;10.760;2024-02-23T02:07:36;0.90;;;0.40;;
30515;SDS011;17297;54.022;10.760;2024-02-23T02:10:02;0.88;;;0.30;;
30515;SDS011;17297;54.022;10.760;2024-02-23T02:12:31;2.13;;;0.35;;
30515;SDS011;17297;54.022;10.760;2024-02-23T02:14:56;0.30;;;0.30;;
30515;SDS011;17297;54.022;10.760;2024-02-23T02:17:22;1.25;;;0.50;;
30515;SDS011;17297;54.022;10.760;2024-02-23T02:19:47;1.08;;;0.30;;
30515;SDS011;17297;54.022;10.760;2024-02-23T02:22:14;0.20;;;0.20;;
30515;SDS011;17297;54.022;10.760;2024-02-23T02:24:40;0.30;;;0.30;;
30515;SDS011;17297;54.022;10.760;2024-02-23T02:27:08;5.28;;;0.40;;
30515;SDS011;17297;54.022;10.760;2024-02-23T02:29:34;0.57;;;0.30;;
30515;SDS011;17297;54.022;10.760;2024-02-23T02:32:00;0.30;;;0.30;;
30515;SDS011;17297;54.022;10.760;2024-02-23T02:34:26;0.30;;;0.30;;
30515;SDS011;17297;54.022;10.760;2024-02-23T02:36:51;0.30;;;0.30;;
30515;SDS011;17297;54.022;10.760;2024-02-23T02:39:16;0.30;;;0.30;;
30515;SDS011;17297;54.022;10.760;2024-02-23T02:41:42;0.30;;;0.30;;
30515;SDS011;17297;54.022;10.760;2024-02-23T02:44:07;0.30;;;0.30;;
30515;SDS011;17297;54.022;10.760;2024-02-23T02:46:34;2.08;;;0.40;;
30515;SDS011;17297;54.022;10.760;2024-02-23T02:49:00;0.22;;;0.22;;
30515;SDS011;17297;54.022;10.760;2024-02-23T02:51:25;3.35;;;0.65;;
30515;SDS011;17297;54.022;10.760;2024-02-23T02:53:51;0.35;;;0.30;;
30515;SDS011;17297;54.022;10.760;2024-02-23T02:56:16;0.75;;;0.28;;
30515;SDS011;17297;54.022;10.760;2024-02-23T02:58:41;0.28;;;0.28;;
30515;SDS011;17297;54.022;10.760;2024-02-23T03:01:07;0.30;;;0.30;;
30515;SDS011;17297;54.022;10.760;2024-02-23T03:03:33;0.30;;;0.30;;
30515;SDS011;17297;54.022;10.760;2024-02-23T03:05:58;0.20;;;0.20;;
30515;SDS011;17297;54.022;10.760;2024-02-23T03:08:23;0.20;;;0.20;;
30515;SDS011;17297;54.022;10.760;2024-02-23T03:10:48;3.50;;;0.32;;
30515;SDS011;17297;54.022;10.760;2024-02-23T03:13:14;0.25;;;0.25;;
30515;SDS011;17297;54.022;10.760;2024-02-23T03:15:39;0.30;;;0.30;;
30515;SDS011;17297;54.022;10.760;2024-02-23T03:18:04;0.20;;;0.20;;
30515;SDS011;17297;54.022;10.760;2024-02-23T03:20:30;0.55;;;0.30;;
30515;SDS011;17297;54.022;10.760;2024-02-23T03:22:55;0.30;;;0.30;;
30515;SDS011;17297;54.022;10.760;2024-02-23T03:25:21;0.22;;;0.22;;
30515;SDS011;17297;54.022;10.760;2024-02-23T03:27:46;0.30;;;0.30;;
30515;SDS011;17297;54.022;10.760;2024-02-23T03:30:11;0.22;;;0.22;;
30515;SDS011;17297;54.022;10.760;2024-02-23T03:32:37;0.20;;;0.20;;
30515;SDS011;17297;54.022;10.760;2024-02-23T03:35:04;0.60;;;0.38;;
30515;SDS011;17297;54.022;10.760;2024-02-23T03:37:31;4.50;;;0.98;;
30515;SDS011;17297;54.022;10.760;2024-02-23T03:39:56;0.47;;;0.47;;
30515;SDS011;17297;54.022;10.760;2024-02-23T03:42:21;1.08;;;0.50;;
30515;SDS011;17297;54.022;10.760;2024-02-23T03:44:47;0.35;;;0.35;;
30515;SDS011;17297;54.022;10.760;2024-02-23T03:47:12;0.40;;;0.40;;
30515;SDS011;17297;54.022;10.760;2024-02-23T03:49:38;0.40;;;0.40;;
30515;SDS011;17297;54.022;10.760;2024-02-23T03:52:04;0.88;;;0.30;;
30515;SDS011;17297;54.022;10.760;2024-02-23T03:54:30;1.15;;;0.40;;
30515;SDS011;17297;54.022;10.760;2024-02-23T03:56:56;1.85;;;0.50;;
30515;SDS011;17297;54.022;10.760;2024-02-23T03:59:21;0.90;;;0.43;;
30515;SDS011;17297;54.022;10.760;2024-02-23T04:01:47;0.40;;;0.40;;
30515;SDS011;17297;54.022;10.760;2024-02-23T04:04:12;0.50;;;0.40;;
30515;SDS011;17297;54.022;10.760;2024-02-23T04:06:37;0.63;;;0.55;;
30515;SDS011;17297;54.022;10.760;2024-02-23T04:09:03;0.60;;;0.50;;
30515;SDS011;17297;54.022;10.760;2024-02-23T04:11:31;0.40;;;0.32;;
30515;SDS011;17297;54.022;10.760;2024-02-23T04:13:57;0.60;;;0.40;;
30515;SDS011;17297;54.022;10.760;2024-02-23T04:16:25;2.45;;;0.43;;
30515;SDS011;17297;54.022;10.760;2024-02-23T04:18:51;0.50;;;0.40;;
30515;SDS011;17297;54.022;10.760;2024-02-23T04:21:16;1.13;;;0.93;;
30515;SDS011;17297;54.022;10.760;2024-02-23T04:23:43;0.40;;;0.40;;
30515;SDS011;17297;54.022;10.760;2024-02-23T04:26:09;0.50;;;0.50;;
30515;SDS011;17297;54.022;10.760;2024-02-23T04:28:34;0.55;;;0.40;;
30515;SDS011;17297;54.022;10.760;2024-02-23T04:31:03;2.95;;;0.82;;
30515;SDS011;17297;54.022;10.760;2024-02-23T04:33:28;1.95;;;0.88;;
30515;SDS011;17297;54.022;10.760;2024-02-23T04:35:53;0.57;;;0.50;;
30515;SDS011;17297;54.022;10.760;2024-02-23T04:38:19;0.57;;;0.57;;
30515;SDS011;17297;54.022;10.760;2024-02-23T04:40:44;0.43;;;0.43;;
30515;SDS011;17297;54.022;10.760;2024-02-23T04:43:10;0.60;;;0.50;;
30515;SDS011;17297;54.022;10.760;2024-02-23T04:45:35;2.00;;;0.70;;
30515;SDS011;17297;54.022;10.760;2024-02-23T04:48:01;1.13;;;0.60;;
30515;SDS011;17297;54.022;10.760;2024-02-23T04:50:27;1.60;;;0.47;;
30515;SDS011;17297;54.022;10.760;2024-02-23T04:52:52;0.55;;;0.50;;
30515;SDS011;17297;54.022;10.760;2024-02-23T04:55:18;1.02;;;0.60;;
30515;SDS011;17297;54.022;10.760;2024-02-23T04:57:43;0.90;;;0.55;;
30515;SDS011;17297;54.022;10.760;2024-02-23T05:00:09;1.70;;;0.60;;
30515;SDS011;17297;54.022;10.760;2024-02-23T05:02:34;1.58;;;1.13;;
30515;SDS011;17297;54.022;10.760;2024-02-23T05:05:06;1.67;;;0.70;;
30515;SDS011;17297;54.022;10.760;2024-02-23T05:07:33;0.60;;;0.60;;
30515;SDS011;17297;54.022;10.760;2024-02-23T05:09:59;1.67;;;0.57;;
30515;SDS011;17297;54.022;10.760;2024-02-23T05:12:24;1.63;;;0.60;;
30515;SDS011;17297;54.022;10.760;2024-02-23T05:14:50;1.15;;;0.70;;
30515;SDS011;17297;54.022;10.760;2024-02-23T05:17:15;1.13;;;0.70;;
30515;SDS011;17297;54.022;10.760;2024-02-23T05:19:40;1.83;;;0.95;;
30515;SDS011;17297;54.022;10.760;2024-02-23T05:22:06;1.42;;;0.80;;
30515;SDS011;17297;54.022;10.760;2024-02-23T05:24:31;1.60;;;0.88;;
30515;SDS011;17297;54.022;10.760;2024-02-23T05:26:56;0.90;;;0.70;;
30515;SDS011;17297;54.022;10.760;2024-02-23T05:29:23;0.75;;;0.75;;
30515;SDS011;17297;54.022;10.760;2024-02-23T05:31:53;1.30;;;0.82;;
30515;SDS011;17297;54.022;10.760;2024-02-23T05:34:19;1.48;;;0.90;;
30515;SDS011;17297;54.022;10.760;2024-02-23T05:36:45;1.00;;;0.95;;
30515;SDS011;17297;54.022;10.760;2024-02-23T05:39:14;2.13;;;1.05;;
30515;SDS011;17297;54.022;10.760;2024-02-23T05:41:43;0.70;;;0.70;;
30515;SDS011;17297;54.022;10.760;2024-02-23T05:44:08;2.80;;;0.90;;
30515;SDS011;17297;54.022;10.760;2024-02-23T05:46:34;1.92;;;1.00;;
30515;SDS011;17297;54.022;10.760;2024-02-23T05:49:00;2.38;;;0.88;;
30515;SDS011;17297;54.022;10.760;2024-02-23T05:51:27;0.88;;;0.88;;
30515;SDS011;17297;54.022;10.760;2024-02-23T05:53:54;0.80;;;0.75;;
30515;SDS011;17297;54.022;10.760;2024-02-23T05:56:19;1.45;;;0.80;;
30515;SDS011;17297;54.022;10.760;2024-02-23T05:58:45;1.88;;;0.90;;
30515;SDS011;17297;54.022;10.760;2024-02-23T06:01:10;1.30;;;0.95;;
30515;SDS011;17297;54.022;10.760;2024-02-23T06:03:35;1.77;;;0.90;;
30515;SDS011;17297;54.022;10.760;2024-02-23T06:06:01;1.25;;;0.77;;
30515;SDS011;17297;54.022;10.760;2024-02-23T06:08:26;2.15;;;0.80;;
30515;SDS011;17297;54.022;10.760;2024-02-23T06:10:51;0.93;;;0.80;;
30515;SDS011;17297;54.022;10.760;2024-02-23T06:13:17;1.20;;;1.00;;
30515;SDS011;17297;54.022;10.760;2024-02-23T06:15:42;2.60;;;0.90;;
30515;SDS011;17297;54.022;10.760;2024-02-23T06:18:08;2.90;;;1.27;;
30515;SDS011;17297;54.022;10.760;2024-02-23T06:20:33;1.88;;;1.00;;
30515;SDS011;17297;54.022;10.760;2024-02-23T06:22:59;0.93;;;0.82;;
30515;SDS011;17297;54.022;10.760;2024-02-23T06:25:24;2.13;;;1.05;;
30515;SDS011;17297;54.022;10.760;2024-02-23T06:27:49;1.40;;;1.00;;
30515;SDS011;17297;54.022;10.760;2024-02-23T06:30:15;2.97;;;1.00;;
30515;SDS011;17297;54.022;10.760;2024-02-23T06:32:40;3.30;;;1.00;;
30515;SDS011;17297;54.022;10.760;2024-02-23T06:35:05;2.47;;;1.00;;
30515;SDS011;17297;54.022;10.760;2024-02-23T06:37:32;2.00;;;0.90;;
30515;SDS011;17297;54.022;10.760;2024-02-23T06:39:58;1.30;;;1.08;;
30515;SDS011;17297;54.022;10.760;2024-02-23T06:42:23;2.40;;;1.05;;
30515;SDS011;17297;54.022;10.760;2024-02-23T06:44:49;3.08;;;0.95;;
30515;SDS011;17297;54.022;10.760;2024-02-23T06:47:15;2.92;;;0.88;;
30515;SDS011;17297;54.022;10.760;2024-02-23T06:49:43;1.17;;;0.95;;
30515;SDS011;17297;54.022;10.760;2024-02-23T06:52:09;3.65;;;1.70;;
30515;SDS011;17297;54.022;10.760;2024-02-23T06:54:36;2.45;;;1.13;;
30515;SDS011;17297;54.022;10.760;2024-02-23T06:57:01;0.88;;;0.80;;
30515;SDS011;17297;54.022;10.760;2024-02-23T06:59:26;2.28;;;1.00;;
30515;SDS011;17297;54.022;10.760;2024-02-23T07:01:52;2.25;;;1.20;;
30515;SDS011;17297;54.022;10.760;2024-02-23T07:04:18;2.47;;;1.13;;
30515;SDS011;17297;54.022;10.760;2024-02-23T07:06:44;0.90;;;0.80;;
30515;SDS011;17297;54.022;10.760;2024-02-23T07:09:09;1.75;;;0.90;;
30515;SDS011;17297;54.022;10.760;2024-02-23T07:11:36;1.08;;;0.98;;
30515;SDS011;17297;54.022;10.760;2024-02-23T07:14:02;1.80;;;0.93;;
30515;SDS011;17297;54.022;10.760;2024-02-23T07:16:27;1.23;;;0.90;;
30515;SDS011;17297;54.022;10.760;2024-02-23T07:18:52;2.15;;;0.98;;
30515;SDS011;17297;54.022;10.760;2024-02-23T07:21:18;2.38;;;0.95;;
30515;SDS011;17297;54.022;10.760;2024-02-23T07:23:43;0.95;;;0.90;;
30515;SDS011;17297;54.022;10.760;2024-02-23T07:26:09;2.15;;;0.90;;
30515;SDS011;17297;54.022;10.760;2024-02-23T07:28:34;1.27;;;0.98;;
30515;SDS011;17297;54.022;10.760;2024-02-23T07:30:59;1.00;;;0.88;;
30515;SDS011;17297;54.022;10.760;2024-02-23T07:33:25;2.60;;;0.80;;
30515;SDS011;17297;54.022;10.760;2024-02-23T07:35:50;3.30;;;0.90;;
30515;SDS011;17297;54.022;10.760;2024-02-23T07:38:15;2.13;;;1.10;;
30515;SDS011;17297;54.022;10.760;2024-02-23T07:40:43;1.77;;;1.15;;
30515;SDS011;17297;54.022;10.760;2024-02-23T07:43:09;2.22;;;1.48;;
30515;SDS011;17297;54.022;10.760;2024-02-23T07:45:36;3.60;;;1.20;;
30515;SDS011;17297;54.022;10.760;2024-02-23T07:48:01;4.57;;;1.38;;
30515;SDS011;17297;54.022;10.760;2024-02-23T07:50:27;2.05;;;1.20;;
30515;SDS011;17297;54.022;10.760;2024-02-23T07:52:53;2.05;;;1.30;;
30515;SDS011;17297;54.022;10.760;2024-02-23T07:55:18;1.60;;;1.20;;
30515;SDS011;17297;54.022;10.760;2024-02-23T07:57:43;2.63;;;1.73;;
30515;SDS011;17297;54.022;10.760;2024-02-23T08:00:09;3.33;;;1.05;;
30515;SDS011;17297;54.022;10.760;2024-02-23T08:02:38;2.35;;;1.02;;
30515;SDS011;17297;54.022;10.760;2024-02-23T08:05:03;3.53;;;1.27;;
30515;SDS011;17297;54.022;10.760;2024-02-23T08:07:29;3.20;;;1.33;;
30515;SDS011;17297;54.022;10.760;2024-02-23T08:09:56;1.70;;;0.95;;
30515;SDS011;17297;54.022;10.760;2024-02-23T08:12:22;2.05;;;1.08;;
30515;SDS011;17297;54.022;10.760;2024-02-23T08:14:47;2.47;;;1.70;;
30515;SDS011;17297;54.022;10.760;2024-02-23T08:17:14;4.82;;;1.33;;
30515;SDS011;17297;54.022;10.760;2024-02-23T08:19:39;2.70;;;1.15;;
30515;SDS011;17297;54.022;10.760;2024-02-23T08:22:05;1.00;;;1.00;;
30515;SDS011;17297;54.022;10.760;2024-02-23T08:24:30;1.67;;;1.15;;
30515;SDS011;17297;54.022;10.760;2024-02-23T08:26:56;1.90;;;1.08;;
30515;SDS011;17297;54.022;10.760;2024-02-23T08:29:21;0.93;;;0.93;;
30515;SDS011;17297;54.022;10.760;2024-02-23T08:31:47;2.20;;;1.00;;
30515;SDS011;17297;54.022;10.760;2024-02-23T08:34:14;2.53;;;1.27;;
30515;SDS011;17297;54.022;10.760;2024-02-23T08:36:39;3.03;;;1.42;;
30515;SDS011;17297;54.022;10.760;2024-02-23T08:39:05;5.05;;;1.00;;
30515;SDS011;17297;54.022;10.760;2024-02-23T08:41:30;4.47;;;1.25;;
30515;SDS011;17297;54.022;10.760;2024-02-23T08:43:56;1.83;;;1.45;;
30515;SDS011;17297;54.022;10.760;2024-02-23T08:46:21;2.10;;;1.10;;
30515;SDS011;17297;54.022;10.760;2024-02-23T08:48:47;1.42;;;1.20;;
30515;SDS011;17297;54.022;10.760;2024-02-23T08:51:12;2.40;;;1.23;;
30515;SDS011;17297;54.022;10.760;2024-02-23T08:53:38;1.40;;;1.30;;
30515;SDS011;17297;54.022;10.760;2024-02-23T08:56:03;3.40;;;1.30;;
30515;SDS011;17297;54.022;10.760;2024-02-23T08:58:31;1.27;;;1.17;;
30515;SDS011;17297;54.022;10.760;2024-02-23T09:00:56;2.15;;;1.20;;
30515;SDS011;17297;54.022;10.760;2024-02-23T09:03:21;1.33;;;1.08;;
30515;SDS011;17297;54.022;10.760;2024-02-23T09:05:47;1.63;;;1.00;;
30515;SDS011;17297;54.022;10.760;2024-02-23T09:08:13;2.80;;;1.67;;
30515;SDS011;17297;54.022;10.760;2024-02-23T09:10:39;2.47;;;1.15;;
30515;SDS011;17297;54.022;10.760;2024-02-23T09:13:04;3.33;;;1.30;;
30515;SDS011;17297;54.022;10.760;2024-02-23T09:15:30;2.85;;;1.30;;
30515;SDS011;17297;54.022;10.760;2024-02-23T09:17:55;1.77;;;1.15;;
30515;SDS011;17297;54.022;10.760;2024-02-23T09:20:21;1.73;;;1.20;;
30515;SDS011;17297;54.022;10.760;2024-02-23T09:22:47;1.98;;;1.08;;
30515;SDS011;17297;54.022;10.760;2024-02-23T09:25:13;1.80;;;1.30;;
30515;SDS011;17297;54.022;10.760;2024-02-23T09:27:38;2.95;;;1.23;;
30515;SDS011;17297;54.022;10.760;2024-02-23T09:30:08;2.72;;;1.45;;
30515;SDS011;17297;54.022;10.760;2024-02-23T09:32:35;2.20;;;1.40;;
30515;SDS011;17297;54.022;10.760;2024-02-23T09:35:01;2.00;;;1.10;;
30515;SDS011;17297;54.022;10.760;2024-02-23T09:37:26;1.95;;;1.10;;
30515;SDS011;17297;54.022;10.760;2024-02-23T09:39:51;2.35;;;1.00;;
30515;SDS011;17297;54.022;10.760;2024-02-23T09:42:17;1.85;;;1.17;;
30515;SDS011;17297;54.022;10.760;2024-02-23T09:44:44;2.42;;;1.27;;
30515;SDS011;17297;54.022;10.760;2024-02-23T09:47:10;3.03;;;1.92;;
30515;SDS011;17297;54.022;10.760;2024-02-23T09:49:37;1.60;;;1.00;;
30515;SDS011;17297;54.022;10.760;2024-02-23T09:52:07;3.25;;;1.05;;
30515;SDS011;17297;54.022;10.760;2024-02-23T09:54:33;3.10;;;1.10;;
30515;SDS011;17297;54.022;10.760;2024-02-23T09:56:59;2.03;;;1.30;;
30515;SDS011;17297;54.022;10.760;2024-02-23T09:59:26;2.70;;;1.15;;
30515;SDS011;17297;54.022;10.760;2024-02-23T10:01:53;3.40;;;1.20;;
30515;SDS011;17297;54.022;10.760;2024-02-23T10:04:19;1.98;;;1.10;;
30515;SDS011;17297;54.022;10.760;2024-02-23T10:06:44;3.90;;;1.48;;
30515;SDS011;17297;54.022;10.760;2024-02-23T10:09:09;1.48;;;1.00;;
30515;SDS011;17297;54.022;10.760;2024-02-23T10:11:37;3.83;;;1.40;;
30515;SDS011;17297;54.022;10.760;2024-02-23T10:14:02;0.85;;;0.77;;
30515;SDS011;17297;54.022;10.760;2024-02-23T10:16:28;2.58;;;1.08;;
30515;SDS011;17297;54.022;10.760;2024-02-23T10:18:53;3.25;;;1.55;;
30515;SDS011;17297;54.022;10.760;2024-02-23T10:21:18;1.52;;;1.00;;
30515;SDS011;17297;54.022;10.760;2024-02-23T10:23:44;4.82;;;1.55;;
30515;SDS011;17297;54.022;10.760;2024-02-23T10:26:10;1.92;;;0.98;;
30515;SDS011;17297;54.022;10.760;2024-02-23T10:28:38;1.20;;;1.10;;
30515;SDS011;17297;54.022;10.760;2024-02-23T10:31:04;3.17;;;1.33;;
30515;SDS011;17297;54.022;10.760;2024-02-23T10:33:30;1.52;;;1.00;;
30515;SDS011;17297;54.022;10.760;2024-02-23T10:35:56;3.95;;;1.10;;
30515;SDS011;17297;54.022;10.760;2024-02-23T10:38:23;2.13;;;1.05;;
30515;SDS011;17297;54.022;10.760;2024-02-23T10:40:50;3.20;;;1.13;;
30515;SDS011;17297;54.022;10.760;2024-02-23T10:43:16;3.47;;;1.17;;
30515;SDS011;17297;54.022;10.760;2024-02-23T10:45:44;1.98;;;1.00;;
30515;SDS011;17297;54.022;10.760;2024-02-23T10:48:11;2.72;;;1.30;;
30515;SDS011;17297;54.022;10.760;2024-02-23T10:50:37;1.42;;;0.90;;
30515;SDS011;17297;54.022;10.760;2024-02-23T10:53:07;2.40;;;0.90;;
30515;SDS011;17297;54.022;10.760;2024-02-23T10:55:33;2.60;;;1.05;;
30515;SDS011;17297;54.022;10.760;2024-02-23T10:58:02;2.95;;;0.95;;
30515;SDS011;17297;54.022;10.760;2024-02-23T11:00:28;2.63;;;1.02;;
30515;SDS011;17297;54.022;10.760;2024-02-23T11:02:54;2.95;;;1.17;;
30515;SDS011;17297;54.022;10.760;2024-02-23T11:05:20;2.70;;;1.40;;
30515;SDS011;17297;54.022;10.760;2024-02-23T11:07:47;1.70;;;1.00;;
30515;SDS011;17297;54.022;10.760;2024-02-23T11:10:17;3.50;;;1.30;;
30515;SDS011;17297;54.022;10.760;2024-02-23T11:12:44;1.38;;;0.90;;
30515;SDS011;17297;54.022;10.760;2024-02-23T11:15:09;1.65;;;1.00;;
30515;SDS011;17297;54.022;10.760;2024-02-23T11:17:36;3.90;;;1.23;;
30515;SDS011;17297;54.022;10.760;2024-02-23T11:20:04;1.58;;;0.90;;
30515;SDS011;17297;54.022;10.760;2024-02-23T11:22:30;4.30;;;1.17;;
30515;SDS011;17297;54.022;10.760;2024-02-23T11:25:06;1.88;;;1.50;;
30515;SDS011;17297;54.022;10.760;2024-02-23T11:27:39;1.50;;;0.90;;
30515;SDS011;17297;54.022;10.760;2024-02-23T11:30:08;3.92;;;0.90;;
30515;SDS011;17297;54.022;10.760;2024-02-23T11:32:45;1.00;;;0.85;;
30515;SDS011;17297;54.022;10.760;2024-02-23T11:35:19;2.35;;;1.90;;
30515;SDS011;17297;54.022;10.760;2024-02-23T11:37:48;2.05;;;1.10;;
30515;SDS011;17297;54.022;10.760;2024-02-23T11:40:13;1.63;;;1.10;;
30515;SDS011;17297;54.022;10.760;2024-02-23T11:42:42;3.10;;;1.20;;
30515;SDS011;17297;54.022;10.760;2024-02-23T11:45:08;1.52;;;0.98;;
30515;SDS011;17297;54.022;10.760;2024-02-23T11:47:36;1.27;;;0.98;;
30515;SDS011;17297;54.022;10.760;2024-02-23T11:50:02;1.00;;;0.90;;
30515;SDS011;17297;54.022;10.760;2024-02-23T11:52:27;2.60;;;1.42;;
30515;SDS011;17297;54.022;10.760;2024-02-23T11:54:52;3.03;;;1.10;;
30515;SDS011;17297;54.022;10.760;2024-02-23T11:57:18;2.60;;;1.08;;
30515;SDS011;17297;54.022;10.760;2024-02-23T11:59:43;2.92;;;1.88;;
30515;SDS011;17297;54.022;10.760;2024-02-23T12:02:09;1.85;;;1.00;;
30515;SDS011;17297;54.022;10.760;2024-02-23T12:04:34;3.40;;;2.05;;
30515;SDS011;17297;54.022;10.760;2024-02-23T12:07:00;2.25;;;1.08;;
30515;SDS011;17297;54.022;10.760;2024-02-23T12:09:25;2.03;;;1.00;;
30515;SDS011;17297;54.022;10.760;2024-02-23T12:11:51;1.17;;;0.80;;
30515;SDS011;17297;54.022;10.760;2024-02-23T12:14:17;1.90;;;0.93;;
30515;SDS011;17297;54.022;10.760;2024-02-23T12:16:42;2.75;;;0.90;;
30515;SDS011;17297;54.022;10.760;2024-02-23T12:19:08;3.90;;;1.05;;
30515;SDS011;17297;54.022;10.760;2024-02-23T12:21:36;3.28;;;1.23;;
30515;SDS011;17297;54.022;10.760;2024-02-23T12:24:03;2.25;;;0.80;;
30515;SDS011;17297;54.022;10.760;2024-02-23T12:26:30;3.00;;;1.10;;
30515;SDS011;17297;54.022;10.760;2024-02-23T12:28:59;3.50;;;1.00;;
30515;SDS011;17297;54.022;10.760;2024-02-23T12:31:26;1.05;;;0.85;;
30515;SDS011;17297;54.022;10.760;2024-02-23T12:33:51;1.02;;;0.70;;
30515;SDS011;17297;54.022;10.760;2024-02-23T12:36:16;1.88;;;0.77;;
30515;SDS011;17297;54.022;10.760;2024-02-23T12:38:45;2.58;;;1.13;;
30515;SDS011;17297;54.022;10.760;2024-02-23T12:41:10;3.38;;;1.10;;
30515;SDS011;17297;54.022;10.760;2024-02-23T12:43:36;2.55;;;0.80;;
30515;SDS011;17297;54.022;10.760;2024-02-23T12:46:01;2.30;;;0.80;;
30515;SDS011;17297;54.022;10.760;2024-02-23T12:48:28;0.98;;;0.68;;
30515;SDS011;17297;54.022;10.760;2024-02-23T12:50:54;3.45;;;0.85;;
30515;SDS011;17297;54.022;10.760;2024-02-23T12:56:05;1.20;;;0.82;;
30515;SDS011;17297;54.022;10.760;2024-02-23T12:58:32;2.15;;;1.10;;
30515;SDS011;17297;54.022;10.760;2024-02-23T13:00:59;1.63;;;0.95;;
30515;SDS011;17297;54.022;10.760;2024-02-23T13:03:25;0.70;;;0.70;;
30515;SDS011;17297;54.022;10.760;2024-02-23T13:05:52;1.10;;;0.77;;
30515;SDS011;17297;54.022;10.760;2024-02-23T13:08:18;1.60;;;0.80;;
30515;SDS011;17297;54.022;10.760;2024-02-23T13:10:43;1.30;;;0.70;;
30515;SDS011;17297;54.022;10.760;2024-02-23T13:13:09;1.80;;;0.85;;
30515;SDS011;17297;54.022;10.760;2024-02-23T13:15:34;1.27;;;1.00;;
30515;SDS011;17297;54.022;10.760;2024-02-23T13:18:02;1.77;;;1.00;;
30515;SDS011;17297;54.022;10.760;2024-02-23T13:20:28;1.85;;;0.80;;
30515;SDS011;17297;54.022;10.760;2024-02-23T13:22:53;1.70;;;0.80;;
30515;SDS011;17297;54.022;10.760;2024-02-23T13:25:18;2.58;;;0.75;;
30515;SDS011;17297;54.022;10.760;2024-02-23T13:27:44;2.30;;;0.80;;
30515;SDS011;17297;54.022;10.760;2024-02-23T13:30:09;1.33;;;0.75;;
30515;SDS011;17297;54.022;10.760;2024-02-23T13:32:35;1.45;;;1.27;;
30515;SDS011;17297;54.022;10.760;2024-02-23T13:35:00;2.33;;;0.70;;
30515;SDS011;17297;54.022;10.760;2024-02-23T13:37:29;0.65;;;0.50;;
30515;SDS011;17297;54.022;10.760;2024-02-23T13:39:54;2.05;;;1.10;;
30515;SDS011;17297;54.022;10.760;2024-02-23T13:42:20;1.58;;;0.60;;
30515;SDS011;17297;54.022;10.760;2024-02-23T13:44:45;1.38;;;0.70;;
30515;SDS011;17297;54.022;10.760;2024-02-23T13:47:12;3.70;;;1.17;;
30515;SDS011;17297;54.022;10.760;2024-02-23T13:49:37;1.95;;;0.70;;
30515;SDS011;17297;54.022;10.760;2024-02-23T13:52:02;1.77;;;0.60;;
30515;SDS011;17297;54.022;10.760;2024-02-23T13:54:28;1.13;;;0.75;;
30515;SDS011;17297;54.022;10.760;2024-02-23T13:56:53;1.88;;;0.80;;
30515;SDS011;17297;54.022;10.760;2024-02-23T13:59:18;0.77;;;0.60;;
30515;SDS011;17297;54.022;10.760;2024-02-23T14:01:44;2.08;;;0.80;;
30515;SDS011;17297;54.022;10.760;2024-02-23T14:04:10;2.92;;;1.00;;
30515;SDS011;17297;54.022;10.760;2024-02-23T14:06:36;2.45;;;0.85;;
30515;SDS011;17297;54.022;10.760;2024-02-23T14:09:01;0.50;;;0.50;;
30515;SDS011;17297;54.022;10.760;2024-02-23T14:11:28;2.20;;;0.95;;
30515;SDS011;17297;54.022;10.760;2024-02-23T14:13:57;0.88;;;0.60;;
30515;SDS011;17297;54.022;10.760;2024-02-23T14:16:22;3.35;;;1.45;;
30515;SDS011;17297;54.022;10.760;2024-02-23T14:18:51;0.90;;;0.75;;
30515;SDS011;17297;54.022;10.760;2024-02-23T14:21:16;1.10;;;0.90;;
30515;SDS011;17297;54.022;10.760;2024-02-23T14:23:43;0.90;;;0.80;;
30515;SDS011;17297;54.022;10.760;2024-02-23T14:26:09;2.05;;;0.80;;
30515;SDS011;17297;54.022;10.760;2024-02-23T14:28:34;1.42;;;0.90;;